createdAt,value
2023-05-16T00:00:08.497Z,1003.76
2023-05-16T00:01:08.519Z,1003.76
2023-05-16T00:02:08.585Z,1003.77
2023-05-16T00:03:08.699Z,1003.77
2023-05-16T00:04:08.728Z,1003.76
2023-05-16T00:05:08.605Z,1003.77
2023-05-16T00:06:08.600Z,1003.81
2023-05-16T00:07:08.623Z,1003.81
2023-05-16T00:08:08.642Z,1003.80
2023-05-16T00:09:08.657Z,1003.81
2023-05-16T00:10:08.671Z,1003.80
2023-05-16T00:11:08.689Z,1003.77
2023-05-16T00:12:08.705Z,1003.82
2023-05-16T00:13:08.723Z,1003.85
2023-05-16T00:14:08.742Z,1003.89
2023-05-16T00:15:08.765Z,1003.86
2023-05-16T00:16:08.793Z,1003.87
2023-05-16T00:17:08.897Z,1003.88
2023-05-16T00:18:08.867Z,1003.90
2023-05-16T00:20:08.843Z,1003.84
2023-05-16T00:21:08.862Z,1003.89
2023-05-16T00:22:08.891Z,1003.83
2023-05-16T00:23:08.905Z,1003.85
2023-05-16T00:24:08.911Z,1003.86
2023-05-16T00:25:08.939Z,1003.82
2023-05-16T00:26:08.951Z,1003.83
2023-05-16T00:27:08.961Z,1003.87
2023-05-16T00:28:08.982Z,1003.89
2023-05-16T00:29:08.999Z,1003.92
2023-05-16T00:30:09.021Z,1003.92
2023-05-16T00:31:09.030Z,1003.94
2023-05-16T00:32:09.133Z,1003.92
2023-05-16T00:33:09.214Z,1003.94
2023-05-16T00:34:09.130Z,1003.92
2023-05-16T00:35:09.102Z,1003.98
2023-05-16T00:36:09.130Z,1003.98
2023-05-16T00:37:09.138Z,1003.94
2023-05-16T00:38:09.151Z,1003.99
2023-05-16T00:39:09.179Z,1003.92
2023-05-16T00:40:09.192Z,1003.96
2023-05-16T00:41:09.205Z,1003.96
2023-05-16T00:42:09.229Z,1003.98
2023-05-16T00:43:09.241Z,1003.99
2023-05-16T00:44:09.260Z,1003.96
2023-05-16T00:45:09.271Z,1004.00
2023-05-16T00:46:09.386Z,1004.02
2023-05-16T00:47:09.315Z,1004.02
2023-05-16T00:48:09.446Z,1004.04
2023-05-16T00:49:09.373Z,1004.03
2023-05-16T00:50:09.360Z,1004.03
2023-05-16T00:51:09.487Z,1004.02
2023-05-16T00:52:09.393Z,1004.05
2023-05-16T00:53:09.415Z,1004.01
2023-05-16T00:54:09.436Z,1004.04
2023-05-16T00:55:09.445Z,1004.08
2023-05-16T00:56:09.465Z,1004.08
2023-05-16T00:57:09.482Z,1004.07
2023-05-16T00:58:09.494Z,1004.04
2023-05-16T00:59:09.510Z,1004.08
2023-05-16T01:00:09.531Z,1004.12
2023-05-16T01:01:09.577Z,1004.05
2023-05-16T01:02:09.559Z,1004.17
2023-05-16T01:03:09.716Z,1004.13
2023-05-16T01:04:09.711Z,1004.17
2023-05-16T01:05:09.625Z,1004.19
2023-05-16T01:06:09.627Z,1004.06
2023-05-16T01:07:09.655Z,1004.15
2023-05-16T01:08:09.669Z,1004.18
2023-05-16T01:09:09.680Z,1004.16
2023-05-16T01:10:09.715Z,1004.23
2023-05-16T01:11:09.709Z,1004.17
2023-05-16T01:12:09.734Z,1004.17
2023-05-16T01:13:09.745Z,1004.26
2023-05-16T01:14:09.779Z,1004.28
2023-05-16T01:15:09.780Z,1004.28
2023-05-16T01:16:09.844Z,1004.31
2023-05-16T01:17:09.810Z,1004.32
2023-05-16T01:18:09.900Z,1004.31
2023-05-16T01:19:09.889Z,1004.37
2023-05-16T01:20:09.860Z,1004.37
2023-05-16T01:21:09.878Z,1004.35
2023-05-16T01:22:09.894Z,1004.39
2023-05-16T01:23:09.919Z,1004.44
2023-05-16T01:24:09.931Z,1004.38
2023-05-16T01:25:09.959Z,1004.47
2023-05-16T01:26:09.973Z,1004.42
2023-05-16T01:27:09.980Z,1004.48
2023-05-16T01:28:09.998Z,1004.42
2023-05-16T01:29:10.013Z,1004.49
2023-05-16T01:30:10.026Z,1004.50
2023-05-16T01:31:10.074Z,1004.45
2023-05-16T01:32:10.062Z,1004.47
2023-05-16T01:33:10.146Z,1004.49
2023-05-16T01:34:10.098Z,1004.49
2023-05-16T01:35:10.112Z,1004.60
2023-05-16T01:36:10.125Z,1004.56
2023-05-16T01:37:10.141Z,1004.59
2023-05-16T01:38:10.159Z,1004.68
2023-05-16T01:39:10.175Z,1004.63
2023-05-16T01:40:10.240Z,1004.62
2023-05-16T01:41:10.207Z,1004.60
2023-05-16T01:42:10.237Z,1004.63
2023-05-16T01:43:10.242Z,1004.65
2023-05-16T01:44:10.256Z,1004.66
2023-05-16T01:45:10.266Z,1004.65
2023-05-16T01:46:10.347Z,1004.66
2023-05-16T01:47:10.337Z,1004.71
2023-05-16T01:48:10.391Z,1004.69
2023-05-16T01:49:10.341Z,1004.69
2023-05-16T01:50:10.357Z,1004.73
2023-05-16T01:51:10.370Z,1004.77
2023-05-16T01:52:10.394Z,1004.82
2023-05-16T01:53:10.401Z,1004.79
2023-05-16T01:54:10.419Z,1004.84
2023-05-16T01:55:10.433Z,1004.89
2023-05-16T01:56:10.450Z,1004.82
2023-05-16T01:57:10.471Z,1004.94
2023-05-16T01:58:10.482Z,1004.90
2023-05-16T01:59:10.499Z,1004.98
2023-05-16T02:00:10.523Z,1004.95
2023-05-16T02:01:10.592Z,1005.00
2023-05-16T02:02:10.559Z,1004.97
2023-05-16T02:03:10.679Z,1005.01
2023-05-16T02:04:10.664Z,1005.04
2023-05-16T02:05:10.599Z,1005.10
2023-05-16T02:06:10.618Z,1005.01
2023-05-16T02:07:10.633Z,1005.02
2023-05-16T02:08:10.647Z,1005.03
2023-05-16T02:09:10.661Z,1004.97
2023-05-16T02:10:10.695Z,1005.01
2023-05-16T02:11:10.690Z,1004.99
2023-05-16T02:12:10.711Z,1005.04
2023-05-16T02:13:10.730Z,1005.05
2023-05-16T02:14:10.752Z,1005.09
2023-05-16T02:15:10.760Z,1005.01
2023-05-16T02:16:10.813Z,1005.07
2023-05-16T02:17:10.955Z,1005.06
2023-05-16T02:18:10.864Z,1005.10
2023-05-16T02:19:10.931Z,1005.05
2023-05-16T02:20:10.845Z,1005.05
2023-05-16T02:21:10.853Z,1005.08
2023-05-16T02:22:10.882Z,1005.09
2023-05-16T02:23:10.884Z,1005.13
2023-05-16T02:24:10.898Z,1005.10
2023-05-16T02:25:10.917Z,1005.17
2023-05-16T02:26:10.940Z,1005.15
2023-05-16T02:27:10.950Z,1005.23
2023-05-16T02:28:11.005Z,1005.14
2023-05-16T02:29:10.985Z,1005.21
2023-05-16T02:30:11.000Z,1005.22
2023-05-16T02:31:11.046Z,1005.15
2023-05-16T02:32:11.047Z,1005.14
2023-05-16T02:33:11.110Z,1005.25
2023-05-16T02:34:11.075Z,1005.27
2023-05-16T02:35:11.083Z,1005.32
2023-05-16T02:36:11.115Z,1005.27
2023-05-16T02:37:13.092Z,1005.26
2023-05-16T02:38:11.124Z,1005.28
2023-05-16T02:39:11.159Z,1005.29
2023-05-16T02:40:11.158Z,1005.36
2023-05-16T02:41:11.173Z,1005.31
2023-05-16T02:42:11.191Z,1005.36
2023-05-16T02:43:11.207Z,1005.36
2023-05-16T02:44:11.232Z,1005.39
2023-05-16T02:45:11.235Z,1005.43
2023-05-16T02:46:11.303Z,1005.40
2023-05-16T02:47:11.269Z,1005.42
2023-05-16T02:48:11.319Z,1005.41
2023-05-16T02:49:11.306Z,1005.39
2023-05-16T02:50:11.311Z,1005.45
2023-05-16T02:51:11.330Z,1005.43
2023-05-16T02:52:11.346Z,1005.41
2023-05-16T02:53:11.367Z,1005.47
2023-05-16T02:54:11.378Z,1005.48
2023-05-16T02:55:36.106Z,1005.50
2023-05-16T02:56:11.411Z,1005.50
2023-05-16T02:57:11.426Z,1005.54
2023-05-16T02:58:11.440Z,1005.51
2023-05-16T02:59:11.456Z,1005.54
2023-05-16T03:00:11.476Z,1005.64
2023-05-16T03:01:11.513Z,1005.64
2023-05-16T03:02:11.565Z,1005.68
2023-05-16T03:03:11.642Z,1005.66
2023-05-16T03:04:11.565Z,1005.72
2023-05-16T03:05:11.558Z,1005.70
2023-05-16T03:06:11.571Z,1005.69
2023-05-16T03:07:11.582Z,1005.67
2023-05-16T03:08:11.621Z,1005.70
2023-05-16T03:09:11.623Z,1005.70
2023-05-16T03:10:11.637Z,1005.68
2023-05-16T03:11:11.668Z,1005.71
2023-05-16T03:12:11.663Z,1005.75
2023-05-16T03:13:11.679Z,1005.73
2023-05-16T03:14:11.705Z,1005.78
2023-05-16T03:15:11.722Z,1005.77
2023-05-16T03:16:11.750Z,1005.83
2023-05-16T03:17:11.749Z,1005.81
2023-05-16T03:18:11.837Z,1005.82
2023-05-16T03:19:11.854Z,1005.81
2023-05-16T03:20:11.815Z,1005.86
2023-05-16T03:21:11.808Z,1005.89
2023-05-16T03:22:11.829Z,1005.85
2023-05-16T03:23:11.842Z,1005.92
2023-05-16T03:24:11.916Z,1005.89
2023-05-16T03:25:11.871Z,1005.96
2023-05-16T03:26:11.898Z,1006.05
2023-05-16T03:27:11.940Z,1005.96
2023-05-16T03:28:13.297Z,1006.02
2023-05-16T03:29:11.935Z,1005.97
2023-05-16T03:30:11.966Z,1005.98
2023-05-16T03:31:12.028Z,1005.98
2023-05-16T03:32:12.083Z,1006.07
2023-05-16T03:33:12.068Z,1006.05
2023-05-16T03:34:12.018Z,1006.03
2023-05-16T03:35:12.057Z,1006.07
2023-05-16T03:36:12.056Z,1006.06
2023-05-16T03:37:12.062Z,1006.03
2023-05-16T03:38:12.077Z,1006.04
2023-05-16T03:39:12.101Z,1005.96
2023-05-16T03:40:12.114Z,1006.08
2023-05-16T03:41:12.156Z,1006.08
2023-05-16T03:42:12.143Z,1006.06
2023-05-16T03:43:12.171Z,1006.05
2023-05-16T03:44:12.176Z,1006.11
2023-05-16T03:45:12.191Z,1006.02
2023-05-16T03:46:12.269Z,1006.09
2023-05-16T03:47:12.217Z,1006.00
2023-05-16T03:48:12.271Z,1006.06
2023-05-16T03:49:12.263Z,1006.06
2023-05-16T03:50:12.274Z,1006.07
2023-05-16T03:51:12.284Z,1006.04
2023-05-16T03:52:12.299Z,1006.04
2023-05-16T03:53:12.314Z,1005.99
2023-05-16T03:54:12.330Z,1006.07
2023-05-16T03:55:12.351Z,1006.06
2023-05-16T03:56:12.359Z,1006.06
2023-05-16T03:57:12.375Z,1006.09
2023-05-16T03:58:12.394Z,1006.00
2023-05-16T03:59:12.409Z,1006.06
2023-05-16T04:00:12.449Z,1006.11
2023-05-16T04:01:12.437Z,1006.09
2023-05-16T04:02:12.526Z,1006.13
2023-05-16T04:03:12.525Z,1006.09
2023-05-16T04:04:12.505Z,1006.14
2023-05-16T04:05:12.609Z,1006.16
2023-05-16T04:06:12.649Z,1006.27
2023-05-16T04:07:12.535Z,1006.24
2023-05-16T04:08:12.572Z,1006.25
2023-05-16T04:09:12.598Z,1006.26
2023-05-16T04:10:12.592Z,1006.28
2023-05-16T04:11:12.606Z,1006.36
2023-05-16T04:12:12.613Z,1006.31
2023-05-16T04:13:12.666Z,1006.32
2023-05-16T04:14:12.642Z,1006.31
2023-05-16T04:15:12.658Z,1006.40
2023-05-16T04:16:12.680Z,1006.37
2023-05-16T04:17:12.715Z,1006.39
2023-05-16T04:18:12.733Z,1006.41
2023-05-16T04:19:12.845Z,1006.48
2023-05-16T04:20:12.748Z,1006.43
2023-05-16T04:21:12.781Z,1006.47
2023-05-16T04:22:12.771Z,1006.43
2023-05-16T04:23:12.783Z,1006.50
2023-05-16T04:24:12.815Z,1006.52
2023-05-16T04:25:12.826Z,1006.54
2023-05-16T04:26:12.837Z,1006.57
2023-05-16T04:27:12.847Z,1006.57
2023-05-16T04:28:12.861Z,1006.61
2023-05-16T04:29:12.876Z,1006.61
2023-05-16T04:30:12.898Z,1006.57
2023-05-16T04:31:12.937Z,1006.57
2023-05-16T04:32:12.931Z,1006.53
2023-05-16T04:33:12.967Z,1006.57
2023-05-16T04:34:12.979Z,1006.58
2023-05-16T04:35:12.983Z,1006.54
2023-05-16T04:36:13.001Z,1006.59
2023-05-16T04:37:13.021Z,1006.62
2023-05-16T04:38:13.030Z,1006.60
2023-05-16T04:39:13.052Z,1006.64
2023-05-16T04:40:13.078Z,1006.65
2023-05-16T04:41:13.064Z,1006.63
2023-05-16T04:42:13.083Z,1006.63
2023-05-16T04:43:13.101Z,1006.66
2023-05-16T04:44:13.124Z,1006.69
2023-05-16T04:45:13.128Z,1006.67
2023-05-16T04:46:13.173Z,1006.76
2023-05-16T04:47:13.160Z,1006.73
2023-05-16T04:48:13.177Z,1006.76
2023-05-16T04:49:13.199Z,1006.69
2023-05-16T04:50:13.219Z,1006.75
2023-05-16T04:51:13.224Z,1006.73
2023-05-16T04:52:13.272Z,1006.78
2023-05-16T04:53:13.257Z,1006.76
2023-05-16T04:54:13.266Z,1006.78
2023-05-16T04:55:13.283Z,1006.79
2023-05-16T04:56:13.305Z,1006.86
2023-05-16T04:57:13.320Z,1006.90
2023-05-16T04:58:13.340Z,1006.89
2023-05-16T04:59:13.358Z,1006.88
2023-05-16T05:00:13.400Z,1006.83
2023-05-16T05:01:13.390Z,1006.95
2023-05-16T05:02:13.441Z,1006.94
2023-05-16T05:03:13.435Z,1006.96
2023-05-16T05:04:13.424Z,1006.92
2023-05-16T05:05:13.532Z,1007.01
2023-05-16T05:06:13.453Z,1007.05
2023-05-16T05:07:13.477Z,1006.98
2023-05-16T05:08:13.496Z,1007.03
2023-05-16T05:09:13.534Z,1006.97
2023-05-16T05:10:13.516Z,1007.03
2023-05-16T05:11:13.541Z,1007.00
2023-05-16T05:12:13.546Z,1007.05
2023-05-16T05:13:13.561Z,1007.04
2023-05-16T05:14:13.575Z,1007.12
2023-05-16T05:15:13.592Z,1007.17
2023-05-16T05:16:13.617Z,1007.20
2023-05-16T05:17:13.644Z,1007.15
2023-05-16T05:18:13.733Z,1007.16
2023-05-16T05:19:13.701Z,1007.23
2023-05-16T05:20:13.683Z,1007.26
2023-05-16T05:21:13.687Z,1007.28
2023-05-16T05:22:13.704Z,1007.30
2023-05-16T05:23:13.715Z,1007.33
2023-05-16T05:24:13.735Z,1007.35
2023-05-16T05:25:13.748Z,1007.42
2023-05-16T05:26:13.767Z,1007.43
2023-05-16T05:27:13.777Z,1007.38
2023-05-16T05:28:13.797Z,1007.45
2023-05-16T05:29:13.809Z,1007.41
2023-05-16T05:30:13.828Z,1007.47
2023-05-16T05:31:13.882Z,1007.48
2023-05-16T05:32:13.905Z,1007.48
2023-05-16T05:33:13.933Z,1007.49
2023-05-16T05:34:13.892Z,1007.42
2023-05-16T05:35:13.918Z,1007.51
2023-05-16T05:36:13.918Z,1007.49
2023-05-16T05:37:13.934Z,1007.57
2023-05-16T05:38:13.956Z,1007.49
2023-05-16T05:39:13.963Z,1007.54
2023-05-16T05:40:13.977Z,1007.58
2023-05-16T05:41:13.999Z,1007.62
2023-05-16T05:42:14.008Z,1007.59
2023-05-16T05:43:14.027Z,1007.65
2023-05-16T05:44:14.039Z,1007.63
2023-05-16T05:45:14.054Z,1007.68
2023-05-16T05:46:14.160Z,1007.75
2023-05-16T05:47:14.096Z,1007.68
2023-05-16T05:48:14.135Z,1007.70
2023-05-16T05:49:14.125Z,1007.74
2023-05-16T05:50:14.138Z,1007.69
2023-05-16T05:51:14.196Z,1007.71
2023-05-16T05:52:14.169Z,1007.71
2023-05-16T05:53:14.182Z,1007.75
2023-05-16T05:54:14.198Z,1007.75
2023-05-16T05:55:14.222Z,1007.73
2023-05-16T05:56:14.232Z,1007.79
2023-05-16T05:57:14.253Z,1007.78
2023-05-16T05:58:14.263Z,1007.77
2023-05-16T05:59:14.280Z,1007.80
2023-05-16T06:00:14.297Z,1007.85
2023-05-16T06:01:14.311Z,1007.91
2023-05-16T06:02:14.339Z,1007.89
2023-05-16T06:03:14.370Z,1007.88
2023-05-16T06:04:14.390Z,1007.91
2023-05-16T06:05:14.411Z,1007.88
2023-05-16T06:06:14.390Z,1007.85
2023-05-16T06:07:14.415Z,1007.91
2023-05-16T06:08:14.425Z,1007.86
2023-05-16T06:09:14.442Z,1007.93
2023-05-16T06:10:14.458Z,1007.86
2023-05-16T06:11:14.475Z,1007.88
2023-05-16T06:12:14.511Z,1007.85
2023-05-16T06:13:14.518Z,1007.93
2023-05-16T06:14:14.541Z,1007.90
2023-05-16T06:15:14.539Z,1007.86
2023-05-16T06:16:14.602Z,1007.86
2023-05-16T06:17:14.580Z,1007.90
2023-05-16T06:18:14.625Z,1007.93
2023-05-16T06:19:14.638Z,1007.89
2023-05-16T06:20:14.622Z,1007.85
2023-05-16T06:21:14.634Z,1007.88
2023-05-16T06:22:14.659Z,1007.94
2023-05-16T06:23:14.668Z,1007.89
2023-05-16T06:24:14.684Z,1007.90
2023-05-16T06:25:14.701Z,1007.90
2023-05-16T06:26:14.718Z,1007.92
2023-05-16T06:27:14.736Z,1008.02
2023-05-16T06:28:14.751Z,1007.92
2023-05-16T06:29:14.768Z,1007.97
2023-05-16T06:30:14.788Z,1008.01
2023-05-16T06:31:14.846Z,1008.00
2023-05-16T06:32:14.814Z,1008.01
2023-05-16T06:33:14.835Z,1008.00
2023-05-16T06:34:14.854Z,1007.98
2023-05-16T06:35:14.940Z,1008.01
2023-05-16T06:36:14.897Z,1008.01
2023-05-16T06:37:14.914Z,1008.04
2023-05-16T06:38:14.919Z,1008.03
2023-05-16T06:39:14.936Z,1008.05
2023-05-16T06:40:14.961Z,1008.11
2023-05-16T06:41:14.967Z,1008.15
2023-05-16T06:43:15.004Z,1008.22
2023-05-16T06:44:15.017Z,1008.19
2023-05-16T06:45:15.032Z,1008.26
2023-05-16T06:46:15.125Z,1008.32
2023-05-16T06:47:15.063Z,1008.27
2023-05-16T06:48:15.126Z,1008.35
2023-05-16T06:49:15.100Z,1008.31
2023-05-16T06:50:15.124Z,1008.29
2023-05-16T06:51:15.133Z,1008.29
2023-05-16T06:52:15.156Z,1008.31
2023-05-16T06:53:15.168Z,1008.34
2023-05-16T06:54:15.197Z,1008.28
2023-05-16T06:55:15.222Z,1008.36
2023-05-16T06:56:15.226Z,1008.31
2023-05-16T06:57:15.240Z,1008.35
2023-05-16T06:58:15.253Z,1008.36
2023-05-16T06:59:15.267Z,1008.35
2023-05-16T07:00:15.289Z,1008.42
2023-05-16T07:01:15.330Z,1008.42
2023-05-16T07:02:15.323Z,1008.40
2023-05-16T07:03:15.462Z,1008.45
2023-05-16T07:04:15.514Z,1008.47
2023-05-16T07:05:15.370Z,1008.57
2023-05-16T07:06:15.390Z,1008.48
2023-05-16T07:07:15.403Z,1008.55
2023-05-16T07:08:15.423Z,1008.51
2023-05-16T07:09:15.438Z,1008.57
2023-05-16T07:10:15.456Z,1008.55
2023-05-16T07:11:15.473Z,1008.52
2023-05-16T07:12:15.487Z,1008.55
2023-05-16T07:13:15.507Z,1008.52
2023-05-16T07:14:15.564Z,1008.54
2023-05-16T07:15:15.537Z,1008.44
2023-05-16T07:16:15.583Z,1008.48
2023-05-16T07:17:15.573Z,1008.53
2023-05-16T07:18:15.675Z,1008.54
2023-05-16T07:19:15.664Z,1008.56
2023-05-16T07:20:15.622Z,1008.56
2023-05-16T07:21:15.641Z,1008.57
2023-05-16T07:22:15.655Z,1008.64
2023-05-16T07:23:15.884Z,1008.63
2023-05-16T07:24:15.692Z,1008.70
2023-05-16T07:25:15.723Z,1008.68
2023-05-16T07:26:15.727Z,1008.69
2023-05-16T07:27:15.744Z,1008.72
2023-05-16T07:28:15.763Z,1008.76
2023-05-16T07:29:15.786Z,1008.76
2023-05-16T07:30:15.806Z,1008.80
2023-05-16T07:31:15.864Z,1008.78
2023-05-16T07:32:15.974Z,1008.82
2023-05-16T07:33:15.844Z,1008.86
2023-05-16T07:34:15.871Z,1008.79
2023-05-16T07:35:15.880Z,1008.69
2023-05-16T07:36:17.542Z,1008.76
2023-05-16T07:37:15.916Z,1008.68
2023-05-16T07:38:15.936Z,1008.78
2023-05-16T07:39:15.970Z,1008.75
2023-05-16T07:40:15.966Z,1008.68
2023-05-16T07:41:15.985Z,1008.65
2023-05-16T07:42:16.002Z,1008.68
2023-05-16T07:43:16.020Z,1008.69
2023-05-16T07:44:16.036Z,1008.72
2023-05-16T07:45:16.056Z,1008.75
2023-05-16T07:46:16.159Z,1008.72
2023-05-16T07:47:16.089Z,1008.72
2023-05-16T07:48:16.127Z,1008.74
2023-05-16T07:49:16.134Z,1008.66
2023-05-16T07:50:16.148Z,1008.71
2023-05-16T07:51:16.162Z,1008.72
2023-05-16T07:52:16.182Z,1008.79
2023-05-16T07:53:16.201Z,1008.75
2023-05-16T07:54:16.218Z,1008.75
2023-05-16T07:55:16.269Z,1008.79
2023-05-16T07:56:16.312Z,1008.87
2023-05-16T07:57:16.297Z,1008.85
2023-05-16T07:58:16.312Z,1008.89
2023-05-16T07:59:16.454Z,1008.94
2023-05-16T08:00:16.388Z,1008.91
2023-05-16T08:01:16.340Z,1008.98
2023-05-16T08:02:16.395Z,1008.92
2023-05-16T08:03:16.544Z,1008.87
2023-05-16T08:04:16.393Z,1008.85
2023-05-16T08:05:16.472Z,1008.91
2023-05-16T08:06:16.463Z,1008.91
2023-05-16T08:07:16.446Z,1008.96
2023-05-16T08:08:16.534Z,1008.98
2023-05-16T08:09:16.511Z,1009.00
2023-05-16T08:10:16.523Z,1009.04
2023-05-16T08:11:16.533Z,1009.08
2023-05-16T08:12:16.540Z,1009.09
2023-05-16T08:13:16.587Z,1009.11
2023-05-16T08:14:16.582Z,1009.12
2023-05-16T08:15:16.604Z,1009.20
2023-05-16T08:16:16.634Z,1009.12
2023-05-16T08:17:16.639Z,1009.21
2023-05-16T08:18:16.810Z,1009.18
2023-05-16T08:19:16.681Z,1009.20
2023-05-16T08:20:16.684Z,1009.20
2023-05-16T08:21:16.726Z,1009.20
2023-05-16T08:22:16.720Z,1009.24
2023-05-16T08:23:16.742Z,1009.27
2023-05-16T08:24:18.329Z,1009.20
2023-05-16T08:25:16.780Z,1009.19
2023-05-16T08:26:16.786Z,1009.21
2023-05-16T08:27:16.808Z,1009.24
2023-05-16T08:28:16.826Z,1009.28
2023-05-16T08:29:16.842Z,1009.32
2023-05-16T08:30:16.865Z,1009.31
2023-05-16T08:31:16.926Z,1009.30
2023-05-16T08:32:16.892Z,1009.27
2023-05-16T08:33:16.966Z,1009.26
2023-05-16T08:34:16.932Z,1009.24
2023-05-16T08:35:16.951Z,1009.31
2023-05-16T08:36:16.967Z,1009.26
2023-05-16T08:37:17.448Z,1009.31
2023-05-16T08:38:17.006Z,1009.30
2023-05-16T08:39:17.019Z,1009.31
2023-05-16T08:40:17.647Z,1009.23
2023-05-16T08:41:17.064Z,1009.30
2023-05-16T08:42:17.078Z,1009.29
2023-05-16T08:43:17.092Z,1009.30
2023-05-16T08:44:17.110Z,1009.27
2023-05-16T08:45:17.125Z,1009.40
2023-05-16T08:46:17.163Z,1009.34
2023-05-16T08:47:17.215Z,1009.46
2023-05-16T08:48:17.294Z,1009.34
2023-05-16T08:49:17.199Z,1009.31
2023-05-16T08:50:17.221Z,1009.30
2023-05-16T08:51:17.232Z,1009.29
2023-05-16T08:52:17.250Z,1009.31
2023-05-16T08:53:17.266Z,1009.25
2023-05-16T08:54:17.285Z,1009.30
2023-05-16T08:55:17.304Z,1009.29
2023-05-16T08:56:17.320Z,1009.31
2023-05-16T08:57:17.337Z,1009.26
2023-05-16T08:58:17.362Z,1009.27
2023-05-16T08:59:17.373Z,1009.26
2023-05-16T09:00:17.391Z,1009.29
2023-05-16T09:01:17.431Z,1009.26
2023-05-16T09:02:17.429Z,1009.33
2023-05-16T09:03:17.492Z,1009.26
2023-05-16T09:04:17.511Z,1009.34
2023-05-16T09:05:17.518Z,1009.25
2023-05-16T09:06:17.501Z,1009.26
2023-05-16T09:07:17.521Z,1009.26
2023-05-16T09:08:17.534Z,1009.25
2023-05-16T09:09:17.554Z,1009.24
2023-05-16T09:10:17.601Z,1009.28
2023-05-16T09:11:17.604Z,1009.21
2023-05-16T09:12:17.603Z,1009.28
2023-05-16T09:13:17.623Z,1009.33
2023-05-16T09:14:17.644Z,1009.29
2023-05-16T09:15:17.663Z,1009.31
2023-05-16T09:16:17.687Z,1009.43
2023-05-16T09:18:17.744Z,1009.42
2023-05-16T09:19:17.750Z,1009.45
2023-05-16T09:20:17.757Z,1009.44
2023-05-16T09:21:17.774Z,1009.54
2023-05-16T09:22:17.795Z,1009.52
2023-05-16T09:23:17.812Z,1009.49
2023-05-16T09:24:17.822Z,1009.48
2023-05-16T09:25:28.368Z,1009.50
2023-05-16T09:26:17.856Z,1009.50
2023-05-16T09:27:17.877Z,1009.43
2023-05-16T09:28:17.893Z,1009.50
2023-05-16T09:29:17.917Z,1009.46
2023-05-16T09:30:17.942Z,1009.43
2023-05-16T09:31:17.984Z,1009.44
2023-05-16T09:32:17.971Z,1009.43
2023-05-16T09:33:18.192Z,1009.46
2023-05-16T09:34:18.003Z,1009.49
2023-05-16T09:35:27.189Z,1009.50
2023-05-16T09:36:18.039Z,1009.57
2023-05-16T09:37:18.060Z,1009.61
2023-05-16T09:38:18.076Z,1009.64
2023-05-16T09:39:18.092Z,1009.60
2023-05-16T09:40:18.114Z,1009.64
2023-05-16T09:41:18.132Z,1009.66
2023-05-16T09:42:18.157Z,1009.64
2023-05-16T09:43:18.591Z,1009.67
2023-05-16T09:44:18.185Z,1009.66
2023-05-16T09:45:18.210Z,1009.69
2023-05-16T09:46:18.229Z,1009.69
2023-05-16T09:47:18.246Z,1009.63
2023-05-16T09:48:18.441Z,1009.68
2023-05-16T09:49:18.306Z,1009.70
2023-05-16T09:50:18.313Z,1009.73
2023-05-16T09:51:18.316Z,1009.77
2023-05-16T09:52:18.329Z,1009.78
2023-05-16T09:53:18.353Z,1009.90
2023-05-16T09:54:18.716Z,1009.88
2023-05-16T09:55:18.405Z,1009.81
2023-05-16T09:56:18.404Z,1009.86
2023-05-16T09:57:18.620Z,1009.90
2023-05-16T09:58:18.451Z,1009.89
2023-05-16T09:59:18.457Z,1009.86
2023-05-16T10:00:18.581Z,1009.85
2023-05-16T10:01:18.547Z,1009.84
2023-05-16T10:02:18.567Z,1009.93
2023-05-16T10:03:18.673Z,1009.80
2023-05-16T10:04:18.650Z,1009.86
2023-05-16T10:05:18.564Z,1009.84
2023-05-16T10:06:18.598Z,1009.86
2023-05-16T10:07:18.598Z,1009.83
2023-05-16T10:08:18.619Z,1009.80
2023-05-16T10:09:18.636Z,1009.82
2023-05-16T10:10:18.653Z,1009.86
2023-05-16T10:11:18.693Z,1009.86
2023-05-16T10:12:18.690Z,1009.84
2023-05-16T10:13:18.709Z,1009.79
2023-05-16T10:14:18.732Z,1009.85
2023-05-16T10:15:18.767Z,1009.81
2023-05-16T10:16:18.830Z,1009.74
2023-05-16T10:17:18.790Z,1009.75
2023-05-16T10:18:18.960Z,1009.82
2023-05-16T10:19:18.901Z,1009.81
2023-05-16T10:20:18.833Z,1009.89
2023-05-16T10:21:18.858Z,1009.88
2023-05-16T10:22:18.874Z,1009.93
2023-05-16T10:23:18.894Z,1009.93
2023-05-16T10:24:18.910Z,1009.90
2023-05-16T10:25:18.929Z,1009.87
2023-05-16T10:26:18.955Z,1009.86
2023-05-16T10:27:19.475Z,1009.81
2023-05-16T10:28:19.002Z,1009.79
2023-05-16T10:29:19.001Z,1009.84
2023-05-16T10:30:19.029Z,1009.91
2023-05-16T10:31:19.056Z,1009.88
2023-05-16T10:32:19.208Z,1009.87
2023-05-16T10:33:19.113Z,1009.82
2023-05-16T10:34:19.090Z,1009.79
2023-05-16T10:35:19.115Z,1009.77
2023-05-16T10:36:19.132Z,1009.75
2023-05-16T10:37:19.166Z,1009.73
2023-05-16T10:38:19.209Z,1009.70
2023-05-16T10:39:19.189Z,1009.70
2023-05-16T10:40:19.208Z,1009.72
2023-05-16T10:41:19.238Z,1009.75
2023-05-16T10:42:19.266Z,1009.81
2023-05-16T10:43:19.261Z,1009.83
2023-05-16T10:44:19.285Z,1009.81
2023-05-16T10:45:19.337Z,1009.88
2023-05-16T10:46:19.363Z,1009.84
2023-05-16T10:47:19.542Z,1009.89
2023-05-16T10:48:19.503Z,1009.94
2023-05-16T10:49:19.385Z,1009.98
2023-05-16T10:50:19.403Z,1010.01
2023-05-16T10:51:19.415Z,1010.03
2023-05-16T10:52:19.439Z,1010.10
2023-05-16T10:53:19.565Z,1010.08
2023-05-16T10:54:19.474Z,1010.08
2023-05-16T10:55:19.492Z,1010.11
2023-05-16T10:56:19.512Z,1010.07
2023-05-16T10:57:19.530Z,1010.11
2023-05-16T10:58:19.549Z,1010.06
2023-05-16T10:59:19.576Z,1010.12
2023-05-16T11:00:19.582Z,1010.10
2023-05-16T11:01:19.675Z,1010.13
2023-05-16T11:02:19.679Z,1010.07
2023-05-16T11:03:19.902Z,1010.14
2023-05-16T11:04:19.658Z,1010.17
2023-05-16T11:05:19.696Z,1010.06
2023-05-16T11:06:21.375Z,1010.10
2023-05-16T11:07:19.723Z,1010.05
2023-05-16T11:08:19.762Z,1010.11
2023-05-16T11:09:19.756Z,1010.08
2023-05-16T11:10:19.784Z,1010.13
2023-05-16T11:11:19.796Z,1010.11
2023-05-16T11:12:19.814Z,1010.12
2023-05-16T11:13:19.832Z,1010.17
2023-05-16T11:14:19.865Z,1010.19
2023-05-16T11:15:19.876Z,1010.13
2023-05-16T11:16:19.949Z,1010.10
2023-05-16T11:17:19.957Z,1010.14
2023-05-16T11:18:19.992Z,1010.13
2023-05-16T11:19:20.050Z,1010.22
2023-05-16T11:20:19.973Z,1010.17
2023-05-16T11:21:19.992Z,1010.14
2023-05-16T11:22:20.029Z,1010.20
2023-05-16T11:23:20.041Z,1010.24
2023-05-16T11:24:21.509Z,1010.21
2023-05-16T11:25:20.074Z,1010.23
2023-05-16T11:26:20.090Z,1010.28
2023-05-16T11:27:20.112Z,1010.32
2023-05-16T11:28:20.130Z,1010.30
2023-05-16T11:29:20.153Z,1010.41
2023-05-16T11:30:20.171Z,1010.34
2023-05-16T11:31:20.269Z,1010.33
2023-05-16T11:32:20.216Z,1010.42
2023-05-16T11:33:20.285Z,1010.35
2023-05-16T11:34:20.250Z,1010.38
2023-05-16T11:35:20.268Z,1010.34
2023-05-16T11:36:20.290Z,1010.33
2023-05-16T11:37:20.316Z,1010.32
2023-05-16T11:38:20.330Z,1010.33
2023-05-16T11:39:20.486Z,1010.35
2023-05-16T11:40:20.370Z,1010.41
2023-05-16T11:41:20.391Z,1010.36
2023-05-16T11:42:20.406Z,1010.47
2023-05-16T11:43:20.431Z,1010.39
2023-05-16T11:44:20.448Z,1010.41
2023-05-16T11:45:20.488Z,1010.36
2023-05-16T11:46:20.525Z,1010.45
2023-05-16T11:47:20.528Z,1010.45
2023-05-16T11:48:32.505Z,1010.42
2023-05-16T11:49:20.549Z,1010.37
2023-05-16T11:50:20.575Z,1010.44
2023-05-16T11:51:20.588Z,1010.57
2023-05-16T11:52:20.615Z,1010.39
2023-05-16T11:53:20.631Z,1010.32
2023-05-16T11:54:20.655Z,1010.28
2023-05-16T11:55:32.375Z,1010.28
2023-05-16T11:56:20.706Z,1010.16
2023-05-16T11:57:20.713Z,1010.11
2023-05-16T11:58:20.742Z,1010.32
2023-05-16T11:59:20.793Z,1010.38
2023-05-16T12:00:20.782Z,1010.23
2023-05-16T12:01:20.818Z,1010.26
2023-05-16T12:02:20.832Z,1010.28
2023-05-16T12:03:20.980Z,1010.31
2023-05-16T12:04:21.180Z,1010.29
2023-05-16T12:05:20.965Z,1010.22
2023-05-16T12:06:20.945Z,1010.32
2023-05-16T12:07:23.100Z,1010.33
2023-05-16T12:08:20.969Z,1010.31